createdAt,value
2023-01-29T00:00:18.038Z,-1.15
2023-01-29T00:01:17.633Z,-1.18
2023-01-29T00:02:17.643Z,-1.17
2023-01-29T00:03:17.638Z,-1.18
2023-01-29T00:04:17.605Z,-1.18
2023-01-29T00:05:27.388Z,-1.17
2023-01-29T00:06:18.569Z,-1.17
2023-01-29T00:07:17.552Z,-1.18
2023-01-29T00:08:17.566Z,-1.18
2023-01-29T00:09:17.541Z,-1.20
2023-01-29T00:10:17.796Z,-1.21
2023-01-29T00:11:17.511Z,-1.21
2023-01-29T00:12:17.485Z,-1.21
2023-01-29T00:13:17.486Z,-1.25
2023-01-29T00:14:17.461Z,-1.27
2023-01-29T00:15:17.455Z,-1.27
2023-01-29T00:16:17.464Z,-1.27
2023-01-29T00:17:17.449Z,-1.27
2023-01-29T00:18:17.411Z,-1.25
2023-01-29T00:19:17.437Z,-1.25
2023-01-29T00:20:17.965Z,-1.25
2023-01-29T00:21:17.393Z,-1.24
2023-01-29T00:22:17.369Z,-1.24
2023-01-29T00:23:17.360Z,-1.23
2023-01-29T00:24:17.362Z,-1.23
2023-01-29T00:25:17.348Z,-1.25
2023-01-29T00:26:17.338Z,-1.27
2023-01-29T00:27:17.311Z,-1.28
2023-01-29T00:28:17.293Z,-1.30
2023-01-29T00:29:17.292Z,-1.30
2023-01-29T00:30:17.599Z,-1.30
2023-01-29T00:31:17.396Z,-1.30
2023-01-29T00:32:17.330Z,-1.28
2023-01-29T00:33:17.238Z,-1.28
2023-01-29T00:34:17.223Z,-1.30
2023-01-29T00:35:17.208Z,-1.31
2023-01-29T00:36:17.214Z,-1.31
2023-01-29T00:37:17.203Z,-1.33
2023-01-29T00:38:17.172Z,-1.35
2023-01-29T00:39:17.179Z,-1.38
2023-01-29T00:40:17.494Z,-1.38
2023-01-29T00:41:17.152Z,-1.39
2023-01-29T00:42:17.112Z,-1.42
2023-01-29T00:43:17.132Z,-1.43
2023-01-29T00:44:17.098Z,-1.46
2023-01-29T00:45:17.131Z,-1.48
2023-01-29T00:46:17.125Z,-1.48
2023-01-29T00:47:17.073Z,-1.49
2023-01-29T00:48:17.041Z,-1.48
2023-01-29T00:49:17.078Z,-1.49
2023-01-29T00:50:17.533Z,-1.48
2023-01-29T00:51:17.061Z,-1.48
2023-01-29T00:52:17.057Z,-1.48
2023-01-29T00:53:17.035Z,-1.48
2023-01-29T00:54:17.019Z,-1.48
2023-01-29T00:55:16.952Z,-1.49
2023-01-29T00:56:16.980Z,-1.45
2023-01-29T00:57:16.934Z,-1.45
2023-01-29T00:58:16.941Z,-1.46
2023-01-29T00:59:16.914Z,-1.48
2023-01-29T01:00:17.188Z,-1.48
2023-01-29T01:01:16.929Z,-1.49
2023-01-29T01:02:16.957Z,-1.49
2023-01-29T01:03:16.881Z,-1.49
2023-01-29T01:04:16.852Z,-1.48
2023-01-29T01:05:16.840Z,-1.49
2023-01-29T01:06:16.829Z,-1.46
2023-01-29T01:07:17.853Z,-1.49
2023-01-29T01:08:16.792Z,-1.48
2023-01-29T01:09:16.801Z,-1.49
2023-01-29T01:10:17.228Z,-1.48
2023-01-29T01:11:16.772Z,-1.48
2023-01-29T01:12:16.763Z,-1.49
2023-01-29T01:13:16.750Z,-1.51
2023-01-29T01:14:16.729Z,-1.53
2023-01-29T01:15:16.719Z,-1.53
2023-01-29T01:16:16.789Z,-1.53
2023-01-29T01:17:16.708Z,-1.53
2023-01-29T01:18:16.726Z,-1.51
2023-01-29T01:19:16.712Z,-1.51
2023-01-29T01:20:17.022Z,-1.53
2023-01-29T01:21:16.681Z,-1.54
2023-01-29T01:22:16.640Z,-1.51
2023-01-29T01:23:16.655Z,-1.53
2023-01-29T01:24:16.718Z,-1.54
2023-01-29T01:25:16.596Z,-1.54
2023-01-29T01:26:16.581Z,-1.56
2023-01-29T01:27:16.587Z,-1.54
2023-01-29T01:28:16.553Z,-1.54
2023-01-29T01:29:16.557Z,-1.54
2023-01-29T01:30:16.899Z,-1.54
2023-01-29T01:31:16.584Z,-1.56
2023-01-29T01:32:16.505Z,-1.54
2023-01-29T01:33:16.491Z,-1.53
2023-01-29T01:34:16.482Z,-1.53
2023-01-29T01:35:16.474Z,-1.51
2023-01-29T01:36:16.454Z,-1.51
2023-01-29T01:37:16.441Z,-1.51
2023-01-29T01:38:16.451Z,-1.51
2023-01-29T01:39:16.423Z,-1.49
2023-01-29T01:40:16.693Z,-1.51
2023-01-29T01:41:16.415Z,-1.51
2023-01-29T01:42:16.387Z,-1.54
2023-01-29T01:43:16.361Z,-1.54
2023-01-29T01:44:16.361Z,-1.56
2023-01-29T01:45:16.340Z,-1.54
2023-01-29T01:46:16.330Z,-1.57
2023-01-29T01:47:16.321Z,-1.56
2023-01-29T01:48:16.318Z,-1.57
2023-01-29T01:49:16.307Z,-1.57
2023-01-29T01:50:16.561Z,-1.56
2023-01-29T01:51:16.293Z,-1.59
2023-01-29T01:52:16.245Z,-1.59
2023-01-29T01:53:16.241Z,-1.60
2023-01-29T01:54:16.231Z,-1.59
2023-01-29T01:55:16.240Z,-1.60
2023-01-29T01:56:16.228Z,-1.60
2023-01-29T01:57:16.245Z,-1.62
2023-01-29T01:58:16.190Z,-1.64
2023-01-29T01:59:16.171Z,-1.66
2023-01-29T02:00:16.459Z,-1.67
2023-01-29T02:01:16.249Z,-1.66
2023-01-29T02:02:16.149Z,-1.69
2023-01-29T02:03:16.121Z,-1.67
2023-01-29T02:04:16.100Z,-1.69
2023-01-29T02:05:16.102Z,-1.67
2023-01-29T02:06:16.090Z,-1.69
2023-01-29T02:07:16.072Z,-1.67
2023-01-29T02:08:16.060Z,-1.66
2023-01-29T02:09:16.062Z,-1.64
2023-01-29T02:10:16.368Z,-1.63
2023-01-29T02:11:16.039Z,-1.64
2023-01-29T02:12:16.016Z,-1.66
2023-01-29T02:13:15.990Z,-1.66
2023-01-29T02:14:15.979Z,-1.66
2023-01-29T02:15:16.067Z,-1.64
2023-01-29T02:16:15.968Z,-1.64
2023-01-29T02:17:15.979Z,-1.64
2023-01-29T02:18:15.939Z,-1.63
2023-01-29T02:19:15.930Z,-1.64
2023-01-29T02:20:16.218Z,-1.66
2023-01-29T02:21:15.933Z,-1.66
2023-01-29T02:22:15.891Z,-1.64
2023-01-29T02:23:15.870Z,-1.63
2023-01-29T02:24:15.989Z,-1.64
2023-01-29T02:25:15.843Z,-1.64
2023-01-29T02:26:15.833Z,-1.66
2023-01-29T02:27:15.861Z,-1.67
2023-01-29T02:28:15.810Z,-1.67
2023-01-29T02:29:15.801Z,-1.69
2023-01-29T02:30:16.168Z,-1.70
2023-01-29T02:31:15.842Z,-1.72
2023-01-29T02:32:15.774Z,-1.74
2023-01-29T02:33:15.750Z,-1.74
2023-01-29T02:34:15.753Z,-1.75
2023-01-29T02:35:15.730Z,-1.75
2023-01-29T02:36:15.711Z,-1.75
2023-01-29T02:37:15.717Z,-1.77
2023-01-29T02:38:15.681Z,-1.74
2023-01-29T02:39:15.695Z,-1.77
2023-01-29T02:40:15.921Z,-1.77
2023-01-29T02:41:15.646Z,-1.78
2023-01-29T02:42:15.651Z,-1.81
2023-01-29T02:43:15.651Z,-1.81
2023-01-29T02:44:15.619Z,-1.81
2023-01-29T02:45:15.628Z,-1.82
2023-01-29T02:46:15.670Z,-1.85
2023-01-29T02:47:15.596Z,-1.88
2023-01-29T02:48:15.551Z,-1.88
2023-01-29T02:49:15.563Z,-1.92
2023-01-29T02:50:15.860Z,-1.92
2023-01-29T02:51:15.531Z,-1.92
2023-01-29T02:52:15.539Z,-1.90
2023-01-29T02:53:15.500Z,-1.93
2023-01-29T02:54:15.494Z,-1.92
2023-01-29T02:55:15.516Z,-1.92
2023-01-29T02:56:15.464Z,-1.93
2023-01-29T02:57:15.469Z,-1.92
2023-01-29T02:58:15.443Z,-1.90
2023-01-29T02:59:15.424Z,-1.90
2023-01-29T03:00:15.873Z,-1.88
2023-01-29T03:01:15.477Z,-1.88
2023-01-29T03:02:15.427Z,-1.87
2023-01-29T03:03:15.384Z,-1.85
2023-01-29T03:04:15.383Z,-1.85
2023-01-29T03:05:15.374Z,-1.85
2023-01-29T03:06:15.342Z,-1.84
2023-01-29T03:07:15.355Z,-1.84
2023-01-29T03:08:15.315Z,-1.80
2023-01-29T03:09:15.306Z,-1.81
2023-01-29T03:10:15.559Z,-1.81
2023-01-29T03:11:15.337Z,-1.80
2023-01-29T03:12:15.282Z,-1.81
2023-01-29T03:13:15.264Z,-1.82
2023-01-29T03:14:15.243Z,-1.82
2023-01-29T03:15:15.232Z,-1.85
2023-01-29T03:16:15.316Z,-1.87
2023-01-29T03:17:15.213Z,-1.88
2023-01-29T03:18:15.209Z,-1.90
2023-01-29T03:19:15.172Z,-1.90
2023-01-29T03:20:15.665Z,-1.88
2023-01-29T03:21:15.151Z,-1.88
2023-01-29T03:22:15.152Z,-1.92
2023-01-29T03:23:15.131Z,-1.92
2023-01-29T03:24:15.169Z,-1.93
2023-01-29T03:25:15.117Z,-1.93
2023-01-29T03:26:15.081Z,-1.93
2023-01-29T03:27:15.083Z,-1.93
2023-01-29T03:28:15.113Z,-1.95
2023-01-29T03:29:15.061Z,-1.95
2023-01-29T03:30:15.334Z,-1.98
2023-01-29T03:31:15.080Z,-1.98
2023-01-29T03:32:15.073Z,-1.98
2023-01-29T03:33:15.023Z,-1.98
2023-01-29T03:34:14.993Z,-1.96
2023-01-29T03:35:15.002Z,-1.96
2023-01-29T03:36:14.971Z,-1.96
2023-01-29T03:37:14.952Z,-1.96
2023-01-29T03:38:14.953Z,-1.98
2023-01-29T03:39:14.939Z,-1.96
2023-01-29T03:40:15.395Z,-1.99
2023-01-29T03:41:22.429Z,-1.98
2023-01-29T03:42:14.897Z,-1.98
2023-01-29T03:43:14.916Z,-1.96
2023-01-29T03:44:14.868Z,-1.96
2023-01-29T03:45:14.862Z,-1.96
2023-01-29T03:46:14.839Z,-1.98
2023-01-29T03:47:14.847Z,-1.96
2023-01-29T03:48:14.830Z,-1.98
2023-01-29T03:49:14.816Z,-1.99
2023-01-29T03:50:14.984Z,-1.99
2023-01-29T04:03:42.503Z,-1.92
2023-01-29T04:04:42.483Z,-1.95
2023-01-29T04:05:42.476Z,-1.95
2023-01-29T04:06:42.454Z,-1.95
2023-01-29T04:07:42.441Z,-1.93
2023-01-29T04:08:42.435Z,-1.95
2023-01-29T04:09:42.412Z,-1.92
2023-01-29T04:10:42.412Z,-1.93
2023-01-29T04:11:42.423Z,-1.96
2023-01-29T04:12:42.403Z,-1.96
2023-01-29T04:13:42.390Z,-1.95
2023-01-29T04:14:42.376Z,-1.98
2023-01-29T04:15:42.360Z,-1.98
2023-01-29T04:16:42.388Z,-1.98
2023-01-29T04:17:42.329Z,-1.99
2023-01-29T04:18:42.314Z,-1.98
2023-01-29T04:19:42.298Z,-1.99
2023-01-29T04:20:42.308Z,-1.98
2023-01-29T04:21:42.269Z,-1.96
2023-01-29T04:22:42.250Z,-1.95
2023-01-29T04:23:42.260Z,-1.95
2023-01-29T04:24:42.246Z,-1.96
2023-01-29T04:25:42.245Z,-1.95
2023-01-29T04:26:42.211Z,-1.96
2023-01-29T04:27:42.207Z,-1.95
2023-01-29T04:28:42.200Z,-1.95
2023-01-29T04:29:42.192Z,-1.93
2023-01-29T04:30:42.199Z,-1.92
2023-01-29T04:31:42.209Z,-1.92
2023-01-29T04:32:42.141Z,-1.92
2023-01-29T04:33:42.139Z,-1.92
2023-01-29T04:34:42.130Z,-1.92
2023-01-29T04:35:42.122Z,-1.93
2023-01-29T04:36:42.109Z,-1.93
2023-01-29T04:37:42.091Z,-1.96
2023-01-29T04:38:42.068Z,-1.98
2023-01-29T04:39:42.072Z,-1.99
2023-01-29T04:40:42.031Z,-1.99
2023-01-29T04:41:42.022Z,-1.98
2023-01-29T04:42:42.019Z,-1.99
2023-01-29T04:43:42.001Z,-1.99
2023-01-29T04:44:41.996Z,-1.98
2023-01-29T04:45:41.973Z,-1.99
2023-01-29T04:46:41.986Z,-1.98
2023-01-29T04:47:42.018Z,-1.99
2023-01-29T04:48:41.952Z,-2.00
2023-01-29T04:49:41.938Z,-2.02
2023-01-29T04:50:41.901Z,-2.03
2023-01-29T04:51:41.908Z,-2.02
2023-01-29T04:52:41.903Z,-2.02
2023-01-29T04:53:41.887Z,-2.03
2023-01-29T04:54:41.869Z,-2.03
2023-01-29T04:55:41.904Z,-2.06
2023-01-29T04:56:41.850Z,-2.08
2023-01-29T04:57:41.844Z,-2.08
2023-01-29T04:58:41.810Z,-2.08
2023-01-29T04:59:41.842Z,-2.08
2023-01-29T05:00:41.820Z,-2.08
2023-01-29T05:01:41.907Z,-2.08
2023-01-29T05:02:41.769Z,-2.10
2023-01-29T05:03:41.750Z,-2.08
2023-01-29T05:04:41.773Z,-2.08
2023-01-29T05:05:41.757Z,-2.08
2023-01-29T05:06:41.719Z,-2.08
2023-01-29T05:07:41.707Z,-2.08
2023-01-29T05:08:41.690Z,-2.06
2023-01-29T05:09:41.681Z,-2.06
2023-01-29T05:10:41.671Z,-2.05
2023-01-29T05:11:41.666Z,-2.06
2023-01-29T05:12:41.657Z,-2.05
2023-01-29T05:13:41.637Z,-2.05
2023-01-29T05:14:41.639Z,-2.05
2023-01-29T05:15:41.667Z,-2.03
2023-01-29T05:16:41.600Z,-2.06
2023-01-29T05:17:41.580Z,-2.08
2023-01-29T05:18:41.569Z,-2.08
2023-01-29T05:19:41.580Z,-2.08
2023-01-29T05:20:41.568Z,-2.08
2023-01-29T05:21:41.537Z,-2.08
2023-01-29T05:22:41.526Z,-2.10
2023-01-29T05:23:41.499Z,-2.10
2023-01-29T05:24:41.499Z,-2.10
2023-01-29T05:25:41.499Z,-2.11
2023-01-29T05:26:41.497Z,-2.14
2023-01-29T05:27:41.454Z,-2.14
2023-01-29T05:28:41.457Z,-2.16
2023-01-29T05:29:41.439Z,-2.16
2023-01-29T05:30:41.432Z,-2.13
2023-01-29T05:31:41.429Z,-2.13
2023-01-29T05:32:41.405Z,-2.13
2023-01-29T05:33:41.405Z,-2.11
2023-01-29T05:34:41.406Z,-2.11
2023-01-29T05:35:41.372Z,-2.11
2023-01-29T05:36:41.360Z,-2.13
2023-01-29T05:37:41.332Z,-2.13
2023-01-29T05:38:41.335Z,-2.11
2023-01-29T05:39:41.329Z,-2.13
2023-01-29T05:40:41.302Z,-2.10
2023-01-29T05:41:41.279Z,-2.10
2023-01-29T05:42:41.270Z,-2.10
2023-01-29T05:43:41.425Z,-2.10
2023-01-29T05:44:41.250Z,-2.06
2023-01-29T05:45:41.254Z,-2.06
2023-01-29T05:46:41.262Z,-2.08
2023-01-29T05:47:41.230Z,-2.08
2023-01-29T05:48:41.200Z,-2.06
2023-01-29T05:49:41.202Z,-2.03
2023-01-29T05:50:41.189Z,-2.02
2023-01-29T05:51:41.172Z,-2.00
2023-01-29T05:52:41.174Z,-2.02
2023-01-29T05:53:41.141Z,-2.02
2023-01-29T05:54:41.168Z,-2.03
2023-01-29T05:55:41.110Z,-2.03
2023-01-29T05:56:41.101Z,-2.06
2023-01-29T05:57:41.100Z,-2.06
2023-01-29T05:58:41.090Z,-2.06
2023-01-29T05:59:41.112Z,-2.10
2023-01-29T06:00:41.055Z,-2.08
2023-01-29T06:01:41.081Z,-2.06
2023-01-29T06:02:41.115Z,-2.06
2023-01-29T06:03:41.010Z,-2.05
2023-01-29T06:04:41.038Z,-2.05
2023-01-29T06:05:40.981Z,-2.02
2023-01-29T06:06:40.983Z,-2.03
2023-01-29T06:07:43.675Z,-2.03
2023-01-29T06:08:40.965Z,-2.05
2023-01-29T06:09:40.960Z,-2.03
2023-01-29T06:10:40.934Z,-2.02
2023-01-29T06:11:40.923Z,-2.03
2023-01-29T06:12:40.912Z,-2.05
2023-01-29T06:13:40.919Z,-2.03
2023-01-29T06:14:40.921Z,-2.02
2023-01-29T06:15:40.872Z,-2.02
2023-01-29T06:16:40.850Z,-2.03
2023-01-29T06:17:40.839Z,-2.03
2023-01-29T06:18:40.835Z,-2.03
2023-01-29T06:19:40.833Z,-2.03
2023-01-29T06:20:40.841Z,-2.05
2023-01-29T06:21:40.789Z,-2.06
2023-01-29T06:22:40.789Z,-2.03
2023-01-29T06:23:40.800Z,-2.02
2023-01-29T06:24:40.798Z,-2.02
2023-01-29T06:25:40.792Z,-2.00
2023-01-29T06:26:40.729Z,-1.99
2023-01-29T06:27:40.723Z,-1.99
2023-01-29T06:28:40.719Z,-1.99
2023-01-29T06:29:40.718Z,-1.99
2023-01-29T06:30:40.722Z,-2.00
2023-01-29T06:31:40.840Z,-2.02
2023-01-29T06:32:40.728Z,-2.05
2023-01-29T06:33:40.659Z,-2.03
2023-01-29T06:34:40.655Z,-2.06
2023-01-29T06:35:40.626Z,-2.10
2023-01-29T06:36:40.612Z,-2.11
2023-01-29T06:37:40.590Z,-2.13
2023-01-29T06:38:40.619Z,-2.13
2023-01-29T06:39:40.593Z,-2.13
2023-01-29T06:40:40.719Z,-2.11
2023-01-29T06:41:40.554Z,-2.08
2023-01-29T06:42:40.537Z,-2.06
2023-01-29T06:43:40.539Z,-2.06
2023-01-29T06:44:40.530Z,-2.06
2023-01-29T06:45:40.563Z,-2.05
2023-01-29T06:46:40.493Z,-2.06
2023-01-29T06:47:40.493Z,-2.06
2023-01-29T06:48:40.476Z,-2.06
2023-01-29T06:49:40.446Z,-2.06
2023-01-29T06:50:40.459Z,-2.08
2023-01-29T06:51:40.426Z,-2.11
2023-01-29T06:52:40.433Z,-2.10
2023-01-29T06:53:40.394Z,-2.11
2023-01-29T06:54:40.403Z,-2.06
2023-01-29T06:55:40.401Z,-2.05
2023-01-29T06:56:40.378Z,-2.05
2023-01-29T06:57:40.388Z,-2.02
2023-01-29T06:58:40.337Z,-2.00
2023-01-29T06:59:40.342Z,-2.02
2023-01-29T07:00:40.372Z,-2.00
2023-01-29T07:01:40.380Z,-2.00
2023-01-29T07:02:40.312Z,-1.99
2023-01-29T07:03:40.279Z,-1.98
2023-01-29T07:04:40.268Z,-1.96
2023-01-29T07:05:40.255Z,-1.96
2023-01-29T07:06:40.230Z,-1.95
2023-01-29T07:07:40.231Z,-1.96
2023-01-29T07:08:40.218Z,-1.95
2023-01-29T07:09:40.199Z,-1.95
2023-01-29T07:10:40.220Z,-1.95
2023-01-29T07:11:40.174Z,-1.96
2023-01-29T07:12:40.178Z,-1.95
2023-01-29T07:13:40.148Z,-1.96
2023-01-29T07:14:40.168Z,-1.95
2023-01-29T07:15:40.129Z,-1.93
2023-01-29T07:16:40.174Z,-1.93
2023-01-29T07:17:40.107Z,-1.95
2023-01-29T07:18:40.093Z,-1.93
2023-01-29T07:19:40.095Z,-1.92
2023-01-29T07:20:40.102Z,-1.90
2023-01-29T07:21:40.058Z,-1.90
2023-01-29T07:22:40.050Z,-1.87
2023-01-29T07:23:40.028Z,-1.85
2023-01-29T07:24:40.017Z,-1.85
2023-01-29T07:25:40.007Z,-1.85
2023-01-29T07:26:39.989Z,-1.84
2023-01-29T07:27:39.981Z,-1.84
2023-01-29T07:28:39.963Z,-1.84
2023-01-29T07:29:39.948Z,-1.84
2023-01-29T07:30:39.962Z,-1.85
2023-01-29T07:31:40.080Z,-1.82
2023-01-29T07:32:39.929Z,-1.82
2023-01-29T07:33:39.924Z,-1.81
2023-01-29T07:34:39.897Z,-1.80
2023-01-29T07:35:40.127Z,-1.77
2023-01-29T07:36:39.876Z,-1.78
2023-01-29T07:37:39.862Z,-1.80
2023-01-29T07:38:39.861Z,-1.78
2023-01-29T07:39:39.849Z,-1.77
2023-01-29T07:40:39.848Z,-1.75
2023-01-29T07:41:39.799Z,-1.75
2023-01-29T07:42:39.790Z,-1.77
2023-01-29T07:43:39.782Z,-1.75
2023-01-29T07:44:39.770Z,-1.75
2023-01-29T07:45:39.814Z,-1.75
2023-01-29T07:46:39.750Z,-1.72
2023-01-29T07:47:39.733Z,-1.74
2023-01-29T07:48:39.748Z,-1.72
2023-01-29T07:49:39.761Z,-1.74
2023-01-29T07:50:39.699Z,-1.75
2023-01-29T07:51:39.696Z,-1.74
2023-01-29T07:52:39.793Z,-1.74
2023-01-29T07:53:39.668Z,-1.72
2023-01-29T07:54:39.650Z,-1.70
2023-01-29T07:55:39.638Z,-1.70
2023-01-29T07:56:39.628Z,-1.75
2023-01-29T07:57:39.624Z,-1.74
2023-01-29T07:58:39.605Z,-1.74
2023-01-29T07:59:39.566Z,-1.74
2023-01-29T08:00:39.600Z,-1.75
2023-01-29T08:01:39.588Z,-1.72
2023-01-29T08:02:39.563Z,-1.69
2023-01-29T08:03:39.581Z,-1.67
2023-01-29T08:04:39.517Z,-1.66
2023-01-29T08:05:39.521Z,-1.64
2023-01-29T08:06:39.507Z,-1.64
2023-01-29T08:07:39.491Z,-1.64
2023-01-29T08:08:39.492Z,-1.64
2023-01-29T08:09:39.470Z,-1.63
2023-01-29T08:10:39.468Z,-1.62
2023-01-29T08:11:39.443Z,-1.60
2023-01-29T08:12:39.430Z,-1.59
2023-01-29T08:13:39.439Z,-1.57
2023-01-29T08:14:39.437Z,-1.57
2023-01-29T08:15:39.496Z,-1.57
2023-01-29T08:16:39.456Z,-1.60
2023-01-29T08:17:52.528Z,-1.63
2023-01-29T08:18:40.573Z,-1.62
2023-01-29T08:19:39.338Z,-1.60
2023-01-29T08:20:39.358Z,-1.60
2023-01-29T08:21:39.311Z,-1.57
2023-01-29T08:22:39.318Z,-1.56
2023-01-29T08:23:39.307Z,-1.57
2023-01-29T08:24:53.330Z,-1.59
2023-01-29T08:25:40.332Z,-1.59
2023-01-29T08:26:39.248Z,-1.59
2023-01-29T08:27:39.228Z,-1.62
2023-01-29T08:28:39.251Z,-1.56
2023-01-29T08:29:39.255Z,-1.53
2023-01-29T08:30:39.299Z,-1.49
2023-01-29T08:31:39.240Z,-1.48
2023-01-29T08:32:39.187Z,-1.48
2023-01-29T08:33:39.608Z,-1.45
2023-01-29T08:34:39.192Z,-1.43
2023-01-29T08:35:39.158Z,-1.48
2023-01-29T08:36:39.144Z,-1.60
2023-01-29T08:37:39.108Z,-1.67
2023-01-29T08:38:39.099Z,-1.74
2023-01-29T08:39:39.091Z,-1.72
2023-01-29T08:40:39.088Z,-1.69
2023-01-29T08:41:39.081Z,-1.64
2023-01-29T08:42:39.101Z,-1.57
2023-01-29T08:43:39.045Z,-1.53
2023-01-29T08:44:39.035Z,-1.57
2023-01-29T08:45:39.086Z,-1.59
2023-01-29T08:46:39.007Z,-1.60
2023-01-29T08:47:38.986Z,-1.59
2023-01-29T08:48:38.978Z,-1.56
2023-01-29T08:49:38.999Z,-1.54
2023-01-29T08:50:38.977Z,-1.53
2023-01-29T08:51:38.987Z,-1.46
2023-01-29T08:52:39.010Z,-1.42
2023-01-29T08:53:38.916Z,-1.38
2023-01-29T08:54:38.926Z,-1.31
2023-01-29T08:55:38.955Z,-1.28
2023-01-29T08:56:38.887Z,-1.21
2023-01-29T08:57:38.857Z,-1.15
2023-01-29T08:58:38.864Z,-1.07
2023-01-29T08:59:38.861Z,-1.05
2023-01-29T09:00:38.852Z,-1.02
2023-01-29T09:01:38.839Z,-1.00
2023-01-29T09:02:38.908Z,-0.99
2023-01-29T09:03:38.788Z,-0.95
2023-01-29T09:04:38.783Z,-0.86
2023-01-29T09:05:38.770Z,-0.87
2023-01-29T09:06:38.799Z,-0.91
2023-01-29T09:07:38.761Z,-0.89
2023-01-29T09:08:38.736Z,-0.59
2023-01-29T09:09:38.748Z,0.15
2023-01-29T09:10:38.728Z,0.27
2023-01-29T09:11:38.706Z,0.21
2023-01-29T09:12:38.706Z,-0.04
2023-01-29T09:13:38.679Z,-0.16
2023-01-29T09:14:38.656Z,-0.37
2023-01-29T09:15:38.649Z,-0.16
2023-01-29T09:16:38.705Z,-0.06
2023-01-29T09:17:38.624Z,0.06
2023-01-29T09:18:38.636Z,0.23
2023-01-29T09:19:38.587Z,0.30
2023-01-29T09:20:38.596Z,0.30
2023-01-29T09:21:38.728Z,0.49
2023-01-29T09:22:38.576Z,0.83
2023-01-29T09:23:38.563Z,1.07
2023-01-29T09:24:38.539Z,0.98
2023-01-29T09:25:38.589Z,1.06
2023-01-29T09:26:38.539Z,0.96
2023-01-29T09:27:38.518Z,0.82
2023-01-29T09:28:38.478Z,0.67
2023-01-29T09:29:38.483Z,0.52
2023-01-29T09:30:38.559Z,0.45
2023-01-29T09:31:38.550Z,0.38
2023-01-29T09:32:54.748Z,0.31
2023-01-29T09:33:39.424Z,0.28
2023-01-29T09:34:38.429Z,0.25
2023-01-29T09:35:38.396Z,0.25
2023-01-29T09:36:38.432Z,0.18
2023-01-29T09:37:38.422Z,0.06
2023-01-29T09:38:38.417Z,0.06
2023-01-29T09:39:38.356Z,0.03
2023-01-29T09:40:38.342Z,-0.01
2023-01-29T09:41:38.347Z,-0.15
2023-01-29T09:42:38.305Z,-0.39
2023-01-29T09:43:38.361Z,-0.66
2023-01-29T09:44:38.280Z,-0.81
2023-01-29T09:45:38.281Z,-0.89
2023-01-29T09:46:38.276Z,-0.81
2023-01-29T09:47:38.247Z,-0.77
2023-01-29T10:03:58.484Z,0.05
2023-01-29T10:04:58.481Z,0.18
2023-01-29T10:05:58.482Z,0.13
2023-01-29T10:06:58.482Z,-0.01
2023-01-29T10:07:58.430Z,-0.05
2023-01-29T10:08:58.420Z,-0.01
2023-01-29T10:09:58.410Z,0.02
2023-01-29T10:10:58.403Z,0.00
2023-01-29T10:11:58.444Z,0.00
2023-01-29T10:12:58.378Z,0.02
2023-01-29T10:13:58.372Z,0.06
2023-01-29T10:14:58.370Z,0.06
2023-01-29T10:15:58.331Z,0.13
2023-01-29T10:16:58.373Z,0.25
2023-01-29T10:17:58.320Z,0.41
2023-01-29T10:18:58.300Z,0.49
2023-01-29T10:19:58.281Z,0.42
2023-01-29T10:20:58.313Z,0.42
2023-01-29T10:21:58.271Z,0.49
2023-01-29T10:22:58.243Z,0.58
2023-01-29T10:23:58.311Z,0.64
2023-01-29T10:24:58.215Z,0.62
2023-01-29T10:25:58.223Z,0.60
2023-01-29T10:26:58.227Z,0.53
2023-01-29T10:27:58.187Z,0.41
2023-01-29T10:29:06.681Z,0.27
2023-01-29T10:29:58.162Z,0.15
2023-01-29T10:30:58.223Z,0.03
2023-01-29T10:32:06.924Z,-0.09
2023-01-29T10:33:05.637Z,-0.08
2023-01-29T10:34:05.613Z,-0.13
2023-01-29T10:35:05.591Z,-0.13
2023-01-29T10:36:05.580Z,-0.09
2023-01-29T10:37:05.571Z,-0.15
2023-01-29T10:37:58.072Z,-0.09
2023-01-29T10:39:05.587Z,-0.08
2023-01-29T10:39:58.013Z,-0.05
2023-01-29T10:40:58.006Z,-0.04
2023-01-29T10:41:58.011Z,0.00
2023-01-29T10:42:58.019Z,-0.04
2023-01-29T10:44:05.519Z,-0.04
2023-01-29T10:44:57.957Z,-0.05
2023-01-29T10:45:57.947Z,-0.12
2023-01-29T10:46:57.979Z,-0.12
2023-01-29T10:47:57.961Z,-0.13
2023-01-29T10:48:57.939Z,-0.12
2023-01-29T10:49:57.907Z,-0.09
2023-01-29T10:50:58.872Z,-0.05
2023-01-29T10:51:57.910Z,-0.01
2023-01-29T10:52:57.899Z,-0.06
2023-01-29T10:53:57.915Z,-0.06
2023-01-29T10:54:57.855Z,-0.12
2023-01-29T10:55:57.831Z,-0.13
2023-01-29T10:56:57.820Z,-0.12
2023-01-29T10:57:57.805Z,-0.08
2023-01-29T10:58:57.785Z,-0.11
2023-01-29T10:59:57.780Z,-0.09
2023-01-29T11:00:57.762Z,-0.09
2023-01-29T11:01:57.808Z,-0.08
2023-01-29T11:03:12.511Z,-0.05
2023-01-29T11:03:58.728Z,-0.13
2023-01-29T11:04:57.737Z,-0.22
2023-01-29T11:05:57.709Z,-0.23
2023-01-29T11:06:57.703Z,-0.23
2023-01-29T11:07:57.754Z,-0.19
2023-01-29T11:08:57.689Z,-0.19
2023-01-29T11:09:57.656Z,-0.18
2023-01-29T11:10:57.640Z,-0.12
2023-01-29T11:11:57.636Z,-0.16
2023-01-29T11:12:57.642Z,-0.18
2023-01-29T11:13:57.736Z,-0.23
2023-01-29T11:14:57.589Z,-0.19
2023-01-29T11:15:57.567Z,-0.15
2023-01-29T11:16:57.685Z,-0.11
2023-01-29T11:17:57.569Z,-0.05
2023-01-29T11:18:57.534Z,0.02
2023-01-29T11:19:57.529Z,0.06
2023-01-29T11:20:57.527Z,0.03
2023-01-29T11:21:57.498Z,-0.04
2023-01-29T11:22:57.495Z,-0.05
2023-01-29T11:23:57.497Z,-0.04
2023-01-29T11:24:57.467Z,0.00
2023-01-29T11:25:57.457Z,-0.01
2023-01-29T11:26:57.460Z,-0.09
2023-01-29T11:27:57.455Z,-0.13
2023-01-29T11:28:57.409Z,-0.04
2023-01-29T11:29:57.391Z,0.10
2023-01-29T11:30:57.494Z,0.23
2023-01-29T11:31:57.405Z,0.20
2023-01-29T11:32:57.379Z,0.18
2023-01-29T11:33:57.362Z,0.23
2023-01-29T11:34:57.400Z,0.24
2023-01-29T11:35:57.307Z,0.23
2023-01-29T11:36:57.308Z,0.28
2023-01-29T11:38:05.965Z,0.21
2023-01-29T11:39:04.794Z,0.21
2023-01-29T11:40:04.780Z,0.16
2023-01-29T11:40:57.269Z,0.18
2023-01-29T11:41:57.235Z,0.21
2023-01-29T11:42:57.229Z,0.16
2023-01-29T11:43:57.232Z,0.21
2023-01-29T11:44:57.221Z,0.20
2023-01-29T11:45:57.199Z,0.07
2023-01-29T11:46:57.198Z,0.15
2023-01-29T11:47:57.190Z,0.21
2023-01-29T11:49:02.537Z,0.25
2023-01-29T11:49:58.160Z,0.18
2023-01-29T11:50:57.130Z,0.23
2023-01-29T11:51:57.138Z,0.28
2023-01-29T11:52:57.110Z,0.39
2023-01-29T11:53:57.180Z,0.42
2023-01-29T11:54:57.106Z,0.48
2023-01-29T11:55:57.089Z,0.57
2023-01-29T11:56:57.089Z,0.62
2023-01-29T11:57:57.041Z,0.68
2023-01-29T11:58:57.090Z,0.68
2023-01-29T11:59:57.043Z,0.71
2023-01-29T12:00:57.010Z,0.71
2023-01-29T12:01:57.014Z,0.51
2023-01-29T12:02:56.997Z,0.53
2023-01-29T12:03:56.996Z,0.58
2023-01-29T12:04:56.966Z,0.52
2023-01-29T12:05:56.961Z,0.62
2023-01-29T12:06:56.992Z,0.72
2023-01-29T12:07:56.928Z,0.83
2023-01-29T12:08:56.949Z,0.89
2023-01-29T12:09:56.906Z,0.94
2023-01-29T12:10:56.894Z,1.06
2023-01-29T12:11:56.859Z,1.19
2023-01-29T12:12:56.851Z,1.42
2023-01-29T12:13:56.850Z,1.50
2023-01-29T12:14:56.831Z,1.65
2023-01-29T12:15:56.862Z,1.75
2023-01-29T12:16:56.800Z,1.54
2023-01-29T12:17:56.789Z,1.43
2023-01-29T12:18:56.780Z,1.55
2023-01-29T12:19:56.763Z,1.65
2023-01-29T12:20:56.767Z,1.58
2023-01-29T12:21:56.753Z,1.50
2023-01-29T12:22:56.720Z,1.43
2023-01-29T12:23:56.727Z,1.54
2023-01-29T12:24:56.764Z,1.68
2023-01-29T12:25:56.731Z,1.76
2023-01-29T12:26:56.704Z,1.89
2023-01-29T12:27:57.206Z,2.16
2023-01-29T12:28:56.652Z,2.27
2023-01-29T12:29:56.636Z,2.48
2023-01-29T12:30:56.694Z,2.35
2023-01-29T12:31:56.623Z,2.13
2023-01-29T12:32:56.604Z,2.06
2023-01-29T12:33:56.598Z,1.73
2023-01-29T12:34:56.660Z,1.82
2023-01-29T12:35:56.601Z,2.02
2023-01-29T12:36:56.552Z,1.91
2023-01-29T12:37:56.556Z,1.93
2023-01-29T12:38:56.532Z,1.90
2023-01-29T12:39:56.522Z,1.79
2023-01-29T12:40:56.486Z,1.75
2023-01-29T12:41:56.509Z,1.79
2023-01-29T12:42:56.476Z,1.83
2023-01-29T12:43:56.483Z,1.91
2023-01-29T12:44:56.443Z,1.98
2023-01-29T12:45:56.431Z,2.08
2023-01-29T12:46:56.458Z,1.80
2023-01-29T12:47:56.396Z,2.13
2023-01-29T12:48:56.380Z,2.44
2023-01-29T12:49:56.390Z,2.59
2023-01-29T12:50:56.360Z,2.74
2023-01-29T12:51:56.378Z,2.94
2023-01-29T12:52:56.343Z,2.98
2023-01-29T12:53:56.340Z,3.13
2023-01-29T12:54:56.367Z,3.02
2023-01-29T12:55:56.344Z,3.07
2023-01-29T12:56:56.302Z,2.92
2023-01-29T12:57:56.280Z,3.07
2023-01-29T12:58:56.259Z,3.40
2023-01-29T12:59:56.264Z,3.25
2023-01-29T13:00:56.298Z,3.50
2023-01-29T13:01:56.231Z,3.25
2023-01-29T13:02:56.244Z,3.34
2023-01-29T13:03:56.215Z,3.52
2023-01-29T13:04:56.202Z,3.54
2023-01-29T13:05:56.172Z,3.25
2023-01-29T13:06:56.143Z,2.98
2023-01-29T13:07:56.154Z,2.82
2023-01-29T13:08:56.122Z,3.02
2023-01-29T13:09:56.132Z,3.20
2023-01-29T13:10:56.111Z,3.28
2023-01-29T13:11:56.106Z,3.28
2023-01-29T13:12:56.080Z,3.00
2023-01-29T13:13:56.062Z,2.88
2023-01-29T13:14:56.089Z,2.87
2023-01-29T13:15:56.057Z,2.84
2023-01-29T13:16:56.034Z,2.70
2023-01-29T13:17:56.012Z,2.55
2023-01-29T13:18:56.022Z,2.26
2023-01-29T13:19:56.011Z,2.04
2023-01-29T13:20:55.973Z,1.72
2023-01-29T13:21:55.978Z,1.58
2023-01-29T13:22:55.956Z,1.39
2023-01-29T13:23:55.947Z,1.18
2023-01-29T13:25:04.704Z,1.08
2023-01-29T13:25:56.917Z,0.97